Time;durP1;ratioP1;P1;durP2;ratioP2;P2;SDS_P1;SDS_P2;PMS_P1;PMS_P2;Temp;Humidity;BMP_temperature;BMP_pressure;BME280_temperature;BME280_humidity;BME280_pressure;Samples;Min_cycle;Max_cycle;Signal;HPM_P1;HPM_P2
2023/10/25 00:01:25;;;;;;;5.78;3.55;;;9.40;99.90;;;;;;5122660;28;20078;-70
2023/10/25 00:03:51;;;;;;;5.03;3.00;;;9.40;99.90;;;;;;5108818;28;20438;-69
2023/10/25 00:06:16;;;;;;;8.32;3.55;;;9.40;99.90;;;;;;5122170;28;20620;-70
2023/10/25 00:08:42;;;;;;;9.07;3.33;;;9.40;99.90;;;;;;5107030;28;20040;-69
2023/10/25 00:11:08;;;;;;;6.55;3.13;;;9.40;99.90;;;;;;5101280;28;20020;-69
2023/10/25 00:13:35;;;;;;;3.80;2.85;;;9.30;99.90;;;;;;5122406;28;20043;-69
2023/10/25 00:16:02;;;;;;;5.65;3.20;;;9.30;99.90;;;;;;5120710;28;20089;-68
2023/10/25 00:18:28;;;;;;;6.82;3.72;;;9.20;99.90;;;;;;5122218;28;20100;-69
2023/10/25 00:20:55;;;;;;;5.38;3.00;;;9.20;99.90;;;;;;5120468;28;20050;-69
2023/10/25 00:23:21;;;;;;;5.90;3.50;;;9.20;99.90;;;;;;5121916;28;20047;-69
2023/10/25 00:25:50;;;;;;;6.47;3.50;;;9.10;99.90;;;;;;5103265;28;20130;-69
2023/10/25 00:28:17;;;;;;;6.63;3.03;;;9.10;99.90;;;;;;5121378;28;20093;-68
2023/10/25 00:30:46;;;;;;;4.85;3.10;;;9.10;99.90;;;;;;5122176;28;20097;-69
2023/10/25 00:33:12;;;;;;;6.95;3.50;;;9.10;99.90;;;;;;5105751;28;20075;-69
2023/10/25 00:35:38;;;;;;;5.40;4.00;;;9.10;99.90;;;;;;5121922;28;20054;-69
2023/10/25 00:38:03;;;;;;;5.03;3.17;;;9.00;99.90;;;;;;5119884;28;20036;-69
2023/10/25 00:40:29;;;;;;;5.28;3.30;;;9.00;99.90;;;;;;5120564;28;20058;-69
2023/10/25 00:43:14;;;;;;;7.18;3.38;;;9.00;99.90;;;;;;5120848;28;20035;-69
2023/10/25 00:45:59;;;;;;;5.32;3.20;;;9.00;99.90;;;;;;5133755;27;20050;-69
2023/10/25 00:48:25;;;;;;;6.22;3.60;;;8.90;99.90;;;;;;5119953;28;20614;-69
2023/10/25 00:50:52;;;;;;;6.20;3.53;;;8.90;99.90;;;;;;5119111;28;20036;-69
2023/10/25 00:53:18;;;;;;;7.38;3.60;;;9.00;99.90;;;;;;5102673;28;20043;-68
2023/10/25 00:55:44;;;;;;;9.50;3.67;;;9.00;99.90;;;;;;5109162;28;20043;-69
2023/10/25 00:58:10;;;;;;;5.57;3.45;;;8.90;99.90;;;;;;5120471;28;20067;-69
2023/10/25 01:00:36;;;;;;;8.68;4.00;;;8.90;99.90;;;;;;5121559;28;20051;-68
2023/10/25 01:03:06;;;;;;;4.88;3.08;;;8.90;99.90;;;;;;5119950;28;20039;-68
2023/10/25 01:05:32;;;;;;;5.18;3.65;;;8.90;99.90;;;;;;5120555;28;20040;-69
2023/10/25 01:07:58;;;;;;;8.63;3.70;;;8.90;99.90;;;;;;5120107;28;20100;-69
2023/10/25 01:10:25;;;;;;;6.75;3.60;;;8.80;99.90;;;;;;5104454;28;20051;-69
2023/10/25 01:12:51;;;;;;;4.90;3.58;;;8.90;99.90;;;;;;5120336;28;20032;-69
2023/10/25 01:15:22;;;;;;;6.60;3.53;;;8.90;99.90;;;;;;5082726;28;20538;-69
2023/10/25 01:17:48;;;;;;;5.03;3.38;;;8.90;99.90;;;;;;5102599;28;20043;-69
2023/10/25 01:20:13;;;;;;;6.15;3.60;;;8.80;99.90;;;;;;5103497;28;20040;-69
2023/10/25 01:22:39;;;;;;;6.60;3.00;;;8.80;99.90;;;;;;5121463;28;20394;-69
2023/10/25 01:25:05;;;;;;;5.57;3.10;;;8.80;99.90;;;;;;5120110;28;20053;-68
2023/10/25 01:27:31;;;;;;;6.68;3.60;;;8.80;99.90;;;;;;5102679;28;20518;-69
2023/10/25 01:29:57;;;;;;;6.00;2.97;;;8.70;99.90;;;;;;5123965;28;20031;-69
2023/10/25 01:32:22;;;;;;;6.35;3.80;;;8.70;99.90;;;;;;5124889;28;20039;-69
2023/10/25 01:34:48;;;;;;;5.13;3.03;;;8.70;99.90;;;;;;5119289;28;20111;-69
2023/10/25 01:37:14;;;;;;;5.82;3.50;;;8.70;99.90;;;;;;5115724;28;20585;-69
2023/10/25 01:39:40;;;;;;;5.95;3.28;;;8.80;99.90;;;;;;5109786;28;20059;-70
2023/10/25 01:42:06;;;;;;;5.10;3.30;;;8.80;99.90;;;;;;5123823;28;20089;-69
2023/10/25 01:44:32;;;;;;;6.35;3.67;;;8.80;99.90;;;;;;5114214;28;20047;-70
2023/10/25 01:46:57;;;;;;;9.00;3.60;;;8.90;99.90;;;;;;5124354;28;20407;-69
2023/10/25 01:49:23;;;;;;;6.80;3.58;;;8.90;99.90;;;;;;5123183;28;20035;-69
2023/10/25 01:51:49;;;;;;;5.30;3.35;;;8.80;99.90;;;;;;5124394;28;20035;-69
2023/10/25 01:54:15;;;;;;;6.80;3.38;;;8.80;99.90;;;;;;5108478;28;20036;-69
2023/10/25 01:56:40;;;;;;;5.28;3.42;;;8.80;99.90;;;;;;5106673;28;20038;-69
2023/10/25 01:59:06;;;;;;;6.35;3.58;;;8.80;99.90;;;;;;5120036;28;20152;-69
2023/10/25 02:01:32;;;;;;;6.75;3.72;;;8.80;99.90;;;;;;5108745;28;20104;-69
2023/10/25 02:03:57;;;;;;;6.65;3.85;;;8.80;99.90;;;;;;5122428;28;20042;-70
2023/10/25 02:06:23;;;;;;;5.68;3.45;;;8.80;99.90;;;;;;5124533;28;20114;-69
2023/10/25 02:08:49;;;;;;;5.63;3.75;;;8.80;99.90;;;;;;5109522;28;20032;-69
2023/10/25 02:11:20;;;;;;;7.30;3.47;;;8.80;99.90;;;;;;5121903;28;20044;-69
2023/10/25 02:13:46;;;;;;;7.80;4.55;;;8.80;99.90;;;;;;5124211;28;20065;-70
2023/10/25 02:16:15;;;;;;;8.45;3.72;;;8.80;99.90;;;;;;5123287;28;20051;-70
2023/10/25 02:18:42;;;;;;;4.57;3.53;;;8.80;99.90;;;;;;5124513;28;20092;-69
2023/10/25 02:21:09;;;;;;;5.32;3.58;;;8.80;99.90;;;;;;5123603;28;20031;-69
2023/10/25 02:23:35;;;;;;;7.32;3.58;;;8.80;99.90;;;;;;5123955;28;20509;-70
2023/10/25 02:26:01;;;;;;;6.13;3.38;;;8.80;99.90;;;;;;5123779;28;20051;-69
2023/10/25 02:28:27;;;;;;;7.88;3.65;;;8.80;99.90;;;;;;5123217;28;20044;-69
2023/10/25 02:30:53;;;;;;;4.00;3.10;;;8.80;99.90;;;;;;5102782;28;20064;-69
2023/10/25 02:33:18;;;;;;;8.10;3.55;;;8.80;99.90;;;;;;5120577;28;20107;-68
2023/10/25 02:35:44;;;;;;;5.13;3.50;;;8.80;99.90;;;;;;5124496;28;20035;-69
2023/10/25 02:38:10;;;;;;;5.03;2.95;;;8.80;99.90;;;;;;5122808;28;20050;-70
2023/10/25 02:40:36;;;;;;;6.38;3.38;;;8.80;99.90;;;;;;5104932;28;20043;-69
2023/10/25 02:43:02;;;;;;;7.80;3.80;;;8.80;99.90;;;;;;5123261;28;20043;-70
2023/10/25 02:45:27;;;;;;;5.38;3.72;;;8.80;99.90;;;;;;5123618;28;20047;-69
2023/10/25 02:47:55;;;;;;;5.00;3.67;;;8.80;99.90;;;;;;5124213;28;20065;-70
2023/10/25 02:50:21;;;;;;;7.10;3.70;;;8.80;99.90;;;;;;5119031;28;20131;-69
2023/10/25 02:52:48;;;;;;;5.82;3.47;;;8.80;99.90;;;;;;5124046;28;20102;-70
2023/10/25 02:55:15;;;;;;;8.63;4.13;;;8.80;99.90;;;;;;5104166;28;20144;-69
2023/10/25 02:57:41;;;;;;;6.05;3.15;;;8.80;99.90;;;;;;5123557;28;20481;-69
2023/10/25 03:00:10;;;;;;;5.80;3.10;;;8.70;99.90;;;;;;5123000;28;20050;-69
2023/10/25 03:02:36;;;;;;;6.63;3.78;;;8.70;99.90;;;;;;5122784;28;20036;-69
2023/10/25 03:05:02;;;;;;;5.97;4.00;;;8.70;99.90;;;;;;5122529;28;20562;-70
2023/10/25 03:07:28;;;;;;;5.22;3.35;;;8.70;99.90;;;;;;5084162;28;20048;-69
2023/10/25 03:09:54;;;;;;;9.38;4.95;;;8.70;99.90;;;;;;5122451;28;20047;-69
2023/10/25 03:12:19;;;;;;;5.90;4.68;;;8.70;99.90;;;;;;5103457;28;20411;-69
2023/10/25 03:14:45;;;;;;;5.63;3.55;;;8.70;99.90;;;;;;5116971;28;20104;-69
2023/10/25 03:17:11;;;;;;;6.10;3.92;;;8.60;99.90;;;;;;5105827;28;20043;-70
2023/10/25 03:19:36;;;;;;;6.05;3.40;;;8.70;99.90;;;;;;5122879;28;20508;-69
2023/10/25 03:22:03;;;;;;;5.38;3.50;;;8.70;99.90;;;;;;5123153;28;20055;-69
2023/10/25 03:24:29;;;;;;;5.78;3.40;;;8.70;99.90;;;;;;5120458;28;20043;-70
2023/10/25 03:26:55;;;;;;;4.57;3.22;;;8.70;99.90;;;;;;5123240;28;20031;-70
2023/10/25 03:29:21;;;;;;;6.63;4.22;;;8.60;99.90;;;;;;5111229;28;20443;-69
2023/10/25 03:31:47;;;;;;;6.22;3.72;;;8.70;99.90;;;;;;5116142;28;20517;-69
2023/10/25 03:34:14;;;;;;;8.02;3.90;;;8.60;99.90;;;;;;5110766;28;20071;-69
2023/10/25 03:36:40;;;;;;;5.63;3.72;;;8.60;99.90;;;;;;5120788;28;20047;-70
2023/10/25 03:39:06;;;;;;;6.53;3.35;;;8.60;99.90;;;;;;5120941;28;20096;-68
2023/10/25 03:41:32;;;;;;;5.90;3.20;;;8.50;99.90;;;;;;5121256;28;20040;-68
2023/10/25 03:43:58;;;;;;;5.05;3.70;;;8.40;99.90;;;;;;5119821;28;20050;-68
2023/10/25 03:46:24;;;;;;;5.45;3.35;;;8.40;99.90;;;;;;5121388;28;20059;-69
2023/10/25 03:48:49;;;;;;;5.22;3.22;;;8.40;99.90;;;;;;5122225;28;20040;-68
2023/10/25 03:51:15;;;;;;;6.45;3.17;;;8.40;99.90;;;;;;5121056;28;20074;-69
2023/10/25 03:53:41;;;;;;;7.38;3.35;;;8.40;99.90;;;;;;5122158;28;20051;-68
2023/10/25 03:56:06;;;;;;;5.05;3.40;;;8.40;99.90;;;;;;5122375;28;20325;-68
2023/10/25 03:58:32;;;;;;;7.13;3.88;;;8.30;99.90;;;;;;5113487;28;20027;-68
2023/10/25 04:01:04;;;;;;;7.10;3.80;;;8.30;99.90;;;;;;5122861;28;20027;-68
2023/10/25 04:03:30;;;;;;;6.57;3.60;;;8.30;99.90;;;;;;5121148;28;20039;-68
2023/10/25 04:05:55;;;;;;;7.22;3.53;;;8.20;99.90;;;;;;5104329;28;20044;-68
2023/10/25 04:08:21;;;;;;;6.07;3.35;;;8.20;99.90;;;;;;5107196;28;20431;-68
2023/10/25 04:10:56;;;;;;;6.40;3.28;;;8.10;99.90;;;;;;5121409;28;20040;-68
2023/10/25 04:13:22;;;;;;;5.88;3.42;;;8.10;99.90;;;;;;5122346;28;20096;-68
2023/10/25 04:16:09;;;;;;;6.05;3.35;;;8.00;99.90;;;;;;5120739;28;20035;-68
2023/10/25 04:18:36;;;;;;;5.25;3.53;;;8.00;99.90;;;;;;5122451;28;20039;-68
2023/10/25 04:21:03;;;;;;;5.70;3.75;;;8.00;99.90;;;;;;5120838;28;20031;-68
2023/10/25 04:23:30;;;;;;;5.60;3.92;;;7.90;99.90;;;;;;5121846;28;20039;-68
2023/10/25 04:26:25;;;;;;;5.13;3.50;;;7.90;99.90;;;;;;5099492;28;20058;-68
2023/10/25 04:28:51;;;;;;;5.90;3.20;;;7.90;99.90;;;;;;5101185;28;20069;-68
2023/10/25 04:31:20;;;;;;;5.72;3.58;;;7.90;99.90;;;;;;5120565;28;20039;-68
2023/10/25 04:33:47;;;;;;;9.30;3.28;;;7.90;99.90;;;;;;5101863;28;20529;-68
2023/10/25 04:36:13;;;;;;;5.55;3.58;;;7.90;99.90;;;;;;5121535;28;20039;-68
2023/10/25 04:38:39;;;;;;;7.80;3.50;;;7.90;99.90;;;;;;5121518;28;20040;-68
2023/10/25 04:41:05;;;;;;;5.25;3.75;;;7.80;99.90;;;;;;5081800;28;20063;-68
2023/10/25 04:43:30;;;;;;;4.95;3.03;;;7.80;99.90;;;;;;5079443;28;20040;-68
2023/10/25 04:45:56;;;;;;;6.07;3.22;;;7.80;99.90;;;;;;5120621;28;20035;-68
2023/10/25 04:48:22;;;;;;;5.25;3.25;;;7.70;99.90;;;;;;5093832;28;20052;-69
2023/10/25 04:50:48;;;;;;;5.57;3.67;;;7.80;99.90;;;;;;5106507;28;20075;-68
2023/10/25 04:53:13;;;;;;;5.38;3.42;;;7.80;99.90;;;;;;5121112;28;20043;-69
2023/10/25 04:55:45;;;;;;;7.30;3.42;;;7.80;99.90;;;;;;5121211;28;20078;-69
2023/10/25 04:58:10;;;;;;;5.93;3.28;;;7.70;99.90;;;;;;5120922;28;20103;-69
2023/10/25 05:00:36;;;;;;;6.82;3.60;;;7.70;99.90;;;;;;5121695;28;20039;-68
2023/10/25 05:03:04;;;;;;;6.80;3.40;;;7.80;99.90;;;;;;5118540;28;20047;-69
2023/10/25 05:05:32;;;;;;;7.57;3.95;;;7.80;99.90;;;;;;5106285;28;20057;-68
2023/10/25 05:07:58;;;;;;;6.00;3.80;;;7.80;99.90;;;;;;5120220;28;20035;-68
2023/10/25 05:10:24;;;;;;;7.85;3.58;;;7.80;99.90;;;;;;5108140;28;20161;-68
2023/10/25 05:12:50;;;;;;;7.90;4.03;;;7.80;99.90;;;;;;5120542;28;20028;-68
2023/10/25 05:15:18;;;;;;;6.60;4.20;;;7.80;99.90;;;;;;5120530;28;20046;-68
2023/10/25 05:17:47;;;;;;;7.60;3.28;;;7.80;99.90;;;;;;5121748;28;20107;-69
2023/10/25 05:20:14;;;;;;;6.10;3.65;;;7.80;99.90;;;;;;5120008;28;20089;-69
2023/10/25 05:22:46;;;;;;;6.18;3.47;;;7.80;99.90;;;;;;5126067;28;20048;-69
2023/10/25 05:25:12;;;;;;;5.97;3.45;;;7.80;99.90;;;;;;5101613;28;20051;-69
2023/10/25 05:27:38;;;;;;;8.63;3.80;;;7.80;99.90;;;;;;5104958;28;20063;-69
2023/10/25 05:30:07;;;;;;;7.47;3.90;;;7.80;99.90;;;;;;5125652;28;20108;-68
2023/10/25 05:32:35;;;;;;;6.65;4.38;;;7.70;99.90;;;;;;5120219;28;20040;-69
2023/10/25 05:35:03;;;;;;;4.85;3.40;;;7.70;99.90;;;;;;5100217;28;20059;-69
2023/10/25 05:37:30;;;;;;;6.28;4.03;;;7.80;99.90;;;;;;5119584;28;20047;-68
2023/10/25 05:39:56;;;;;;;6.60;3.80;;;7.70;99.90;;;;;;5120529;28;20044;-69
2023/10/25 05:42:25;;;;;;;6.70;3.38;;;7.70;99.90;;;;;;5109452;28;20077;-68
2023/10/25 05:44:53;;;;;;;4.68;3.28;;;7.70;99.90;;;;;;5099502;28;20082;-68
2023/10/25 05:47:21;;;;;;;6.25;3.17;;;7.70;99.90;;;;;;5110104;28;20086;-69
2023/10/25 05:49:48;;;;;;;6.20;3.42;;;7.70;99.90;;;;;;5119531;28;20048;-69
2023/10/25 05:52:14;;;;;;;6.07;3.53;;;7.70;99.90;;;;;;5120009;28;20044;-69
2023/10/25 05:54:40;;;;;;;6.47;3.30;;;7.60;99.90;;;;;;5112364;28;20395;-69
2023/10/25 05:57:07;;;;;;;6.30;3.33;;;7.60;99.90;;;;;;5091308;28;20073;-69
2023/10/25 05:59:34;;;;;;;6.38;3.65;;;7.60;99.90;;;;;;5120034;28;20047;-69
2023/10/25 06:02:01;;;;;;;7.22;3.63;;;7.50;99.90;;;;;;5120770;28;20094;-69
2023/10/25 06:04:29;;;;;;;7.40;3.40;;;7.50;99.90;;;;;;5120284;28;20046;-69
2023/10/25 06:06:55;;;;;;;7.03;3.58;;;7.50;99.90;;;;;;5108618;28;20112;-68
2023/10/25 06:09:21;;;;;;;6.80;3.83;;;7.50;99.90;;;;;;5120780;28;20035;-68
2023/10/25 06:11:47;;;;;;;6.22;3.70;;;7.50;99.90;;;;;;5121526;28;20122;-69
2023/10/25 06:14:13;;;;;;;7.18;3.85;;;7.50;99.90;;;;;;5120976;28;20683;-69
2023/10/25 06:16:39;;;;;;;6.50;3.65;;;7.50;99.90;;;;;;5095834;27;20039;-68
2023/10/25 06:19:05;;;;;;;7.32;4.10;;;7.50;99.90;;;;;;5125360;27;20043;-68
2023/10/25 06:21:31;;;;;;;6.75;3.70;;;7.40;99.90;;;;;;5084813;28;20085;-68
2023/10/25 06:23:56;;;;;;;8.63;3.60;;;7.50;99.90;;;;;;5097358;28;20130;-68
2023/10/25 06:26:24;;;;;;;7.68;3.65;;;7.50;99.90;;;;;;5106153;28;20054;-68
2023/10/25 06:28:50;;;;;;;6.30;3.65;;;7.50;99.90;;;;;;5104690;28;20584;-68
2023/10/25 06:31:16;;;;;;;8.55;3.38;;;7.50;99.90;;;;;;5089432;28;20079;-68
2023/10/25 06:33:42;;;;;;;7.00;3.50;;;7.50;99.90;;;;;;5104409;28;20055;-68
2023/10/25 06:36:08;;;;;;;7.30;3.88;;;7.50;99.90;;;;;;5105303;28;20054;-68
2023/10/25 06:38:35;;;;;;;7.93;3.47;;;7.50;99.90;;;;;;5122556;28;20055;-68
2023/10/25 06:41:01;;;;;;;6.03;3.42;;;7.50;99.90;;;;;;5122467;28;20081;-68
2023/10/25 06:43:30;;;;;;;4.93;3.28;;;7.50;99.90;;;;;;5105925;28;20344;-69
2023/10/25 06:45:58;;;;;;;5.53;3.38;;;7.60;99.90;;;;;;5122862;28;20047;-68
2023/10/25 06:48:24;;;;;;;8.05;3.80;;;7.60;99.90;;;;;;5113802;28;20063;-68
2023/10/25 06:50:53;;;;;;;6.28;3.72;;;7.60;99.90;;;;;;5121586;28;20123;-68
2023/10/25 06:53:20;;;;;;;4.57;3.30;;;7.70;99.90;;;;;;5108675;28;20388;-68
2023/10/25 06:55:46;;;;;;;3.85;2.95;;;7.70;99.90;;;;;;5123018;28;20039;-68
2023/10/25 06:58:12;;;;;;;5.93;3.15;;;7.70;99.90;;;;;;5122210;28;20036;-68
2023/10/25 07:00:41;;;;;;;5.13;3.63;;;7.70;99.90;;;;;;5124100;28;20046;-68
2023/10/25 07:03:10;;;;;;;6.03;3.60;;;7.80;99.90;;;;;;5104091;28;20792;-68
2023/10/25 07:05:37;;;;;;;5.93;3.65;;;7.80;99.90;;;;;;5124055;28;20055;-68
2023/10/25 07:08:03;;;;;;;6.65;3.85;;;7.80;99.90;;;;;;5105139;28;20434;-68
2023/10/25 07:10:29;;;;;;;7.60;3.72;;;7.90;99.90;;;;;;5104880;28;20040;-68
2023/10/25 07:12:54;;;;;;;5.53;3.67;;;7.60;99.90;;;;;;5111185;27;20048;-68
2023/10/25 07:15:22;;;;;;;6.60;3.95;;;7.90;99.90;;;;;;5109507;27;20050;-68
2023/10/25 07:17:49;;;;;;;7.70;3.97;;;7.90;99.90;;;;;;5079660;28;20044;-68
2023/10/25 07:20:15;;;;;;;8.32;4.53;;;8.00;99.90;;;;;;5103039;28;20039;-68
2023/10/25 07:22:41;;;;;;;5.88;4.10;;;8.00;99.90;;;;;;5122563;28;20119;-69
2023/10/25 07:25:08;;;;;;;7.28;4.15;;;8.00;99.90;;;;;;5103354;28;20510;-68
2023/10/25 07:27:36;;;;;;;6.15;4.18;;;8.10;99.90;;;;;;5121033;28;20054;-68
2023/10/25 07:30:03;;;;;;;6.20;4.40;;;8.10;99.90;;;;;;5122267;28;20039;-67
2023/10/25 07:32:30;;;;;;;6.40;5.13;;;8.10;99.90;;;;;;5092988;28;20036;-67
2023/10/25 07:34:56;;;;;;;5.78;4.60;;;8.20;99.90;;;;;;5101133;28;20085;-67
2023/10/25 07:37:22;;;;;;;7.35;4.75;;;8.20;99.90;;;;;;5110471;28;20111;-67
2023/10/25 07:39:47;;;;;;;9.93;5.03;;;8.20;99.90;;;;;;5115235;28;20105;-67
2023/10/25 07:42:13;;;;;;;8.25;4.72;;;8.30;99.90;;;;;;5111051;28;20449;-67
2023/10/25 07:44:39;;;;;;;6.65;4.90;;;8.30;99.90;;;;;;5103772;28;20040;-67
2023/10/25 07:47:05;;;;;;;8.65;4.50;;;8.40;99.90;;;;;;5112861;28;20031;-67
2023/10/25 07:49:35;;;;;;;7.47;4.65;;;8.40;99.90;;;;;;5077245;28;20052;-68
2023/10/25 07:52:01;;;;;;;8.57;5.00;;;8.40;99.90;;;;;;5111513;28;20275;-67
2023/10/25 07:54:27;;;;;;;7.60;4.68;;;8.50;99.90;;;;;;5108745;28;20043;-67
2023/10/25 07:56:52;;;;;;;7.18;4.30;;;8.50;99.90;;;;;;5082900;28;20066;-67
2023/10/25 07:59:18;;;;;;;7.53;4.22;;;8.50;99.90;;;;;;5088402;28;20048;-67
2023/10/25 08:01:44;;;;;;;7.63;4.70;;;8.60;99.90;;;;;;5122198;28;20051;-68
2023/10/25 08:04:10;;;;;;;5.93;4.20;;;8.60;99.90;;;;;;5120998;28;20051;-67
2023/10/25 08:06:36;;;;;;;7.38;4.70;;;8.60;99.90;;;;;;5102747;28;20035;-67
2023/10/25 08:09:02;;;;;;;7.13;4.47;;;8.70;99.90;;;;;;5122416;28;20042;-67
2023/10/25 08:11:28;;;;;;;6.50;4.63;;;8.70;99.90;;;;;;5119412;28;20047;-67
2023/10/25 08:13:53;;;;;;;8.32;4.97;;;8.80;99.90;;;;;;5103093;28;20561;-67
2023/10/25 08:16:19;;;;;;;7.18;4.22;;;8.80;99.90;;;;;;5102245;28;20054;-67
2023/10/25 08:18:45;;;;;;;8.70;4.43;;;8.90;99.90;;;;;;5121469;28;20040;-67
2023/10/25 08:21:14;;;;;;;6.65;4.03;;;8.90;99.90;;;;;;5102594;28;20104;-67
2023/10/25 08:23:40;;;;;;;7.35;4.68;;;9.00;99.90;;;;;;5085790;28;20051;-67
2023/10/25 08:26:06;;;;;;;6.88;5.10;;;9.00;99.90;;;;;;5121182;28;20153;-67
2023/10/25 08:28:32;;;;;;;6.80;4.40;;;9.10;99.90;;;;;;5101605;28;20515;-68
2023/10/25 08:30:57;;;;;;;9.43;4.75;;;9.10;99.90;;;;;;5104244;28;20038;-67
2023/10/25 08:33:23;;;;;;;10.63;5.18;;;9.20;99.90;;;;;;5123554;27;20043;-67
2023/10/25 08:35:49;;;;;;;8.00;4.60;;;9.20;99.90;;;;;;5110470;27;20048;-67
2023/10/25 08:38:14;;;;;;;8.43;4.75;;;9.20;99.90;;;;;;5105187;27;20095;-67
2023/10/25 08:40:41;;;;;;;7.80;4.80;;;9.30;99.90;;;;;;5121865;27;20036;-67
2023/10/25 08:43:08;;;;;;;5.65;4.32;;;9.40;99.90;;;;;;5101727;28;20150;-66
2023/10/25 08:45:37;;;;;;;6.20;4.95;;;9.40;99.90;;;;;;5120133;28;20084;-67
2023/10/25 08:48:04;;;;;;;8.18;4.95;;;9.50;99.90;;;;;;5120496;28;20043;-67
2023/10/25 08:50:32;;;;;;;6.63;4.50;;;9.50;99.90;;;;;;5112540;28;20043;-67
2023/10/25 08:52:59;;;;;;;7.55;4.40;;;9.60;99.90;;;;;;5094202;28;20040;-67
2023/10/25 08:55:25;;;;;;;7.32;4.53;;;9.60;99.90;;;;;;5119456;28;20055;-67
2023/10/25 08:57:55;;;;;;;6.97;4.65;;;9.70;99.90;;;;;;5119990;28;20040;-68
2023/10/25 09:00:23;;;;;;;6.45;4.38;;;9.70;99.90;;;;;;5103476;28;20051;-67
2023/10/25 09:02:50;;;;;;;7.28;5.03;;;9.80;99.90;;;;;;5118789;28;20132;-67
2023/10/25 09:05:15;;;;;;;6.32;4.35;;;9.80;99.90;;;;;;5120217;28;20081;-67
2023/10/25 09:07:41;;;;;;;7.20;4.40;;;10.20;99.90;;;;;;5117075;28;20052;-67
2023/10/25 09:10:17;;;;;;;8.00;4.82;;;10.00;99.90;;;;;;5119163;28;20040;-67
2023/10/25 09:12:45;;;;;;;5.38;4.32;;;10.00;99.90;;;;;;5120213;28;20044;-67
2023/10/25 09:15:11;;;;;;;6.78;4.53;;;10.10;99.90;;;;;;5100864;28;20088;-68
2023/10/25 09:17:37;;;;;;;8.10;4.10;;;10.20;99.90;;;;;;5119273;28;20047;-67
2023/10/25 09:20:06;;;;;;;6.53;4.38;;;9.90;99.90;;;;;;5100184;28;20487;-67
2023/10/25 09:22:32;;;;;;;6.05;4.10;;;10.50;99.90;;;;;;5102179;28;20047;-67
2023/10/25 09:25:00;;;;;;;7.85;4.25;;;10.60;99.90;;;;;;5119544;28;20039;-67
2023/10/25 09:27:27;;;;;;;6.55;3.60;;;10.80;99.90;;;;;;5119303;28;20043;-67
2023/10/25 09:29:54;;;;;;;5.90;3.88;;;11.10;99.90;;;;;;5118065;28;20503;-67
2023/10/25 09:32:21;;;;;;;6.95;4.00;;;11.20;99.90;;;;;;5113767;28;20056;-67
2023/10/25 09:34:50;;;;;;;6.18;3.83;;;11.30;99.90;;;;;;5118061;28;20078;-68
2023/10/25 09:37:16;;;;;;;5.97;3.67;;;11.40;99.90;;;;;;5117900;28;20088;-67
2023/10/25 09:39:42;;;;;;;4.97;3.17;;;11.60;99.90;;;;;;5120293;28;20048;-68
2023/10/25 09:42:15;;;;;;;7.00;3.72;;;11.70;99.90;;;;;;5100819;28;20039;-69
2023/10/25 09:44:50;;;;;;;4.68;3.03;;;11.90;99.90;;;;;;5119226;28;20039;-68
2023/10/25 09:47:18;;;;;;;6.23;3.40;;;12.10;99.90;;;;;;5120599;28;20122;-67
2023/10/25 09:49:48;;;;;;;5.10;3.15;;;12.20;99.90;;;;;;5120539;28;20047;-68
2023/10/25 09:52:26;;;;;;;6.03;2.92;;;12.30;99.90;;;;;;5125296;28;20052;-67
2023/10/25 09:54:56;;;;;;;6.60;3.47;;;12.30;99.90;;;;;;5104771;28;20043;-68
2023/10/25 09:57:28;;;;;;;5.72;3.03;;;12.30;99.90;;;;;;5105920;28;20039;-68
2023/10/25 09:59:56;;;;;;;4.35;3.10;;;12.30;99.90;;;;;;5106203;28;20050;-67
2023/10/25 10:02:44;;;;;;;4.60;2.65;;;12.30;99.90;;;;;;5123712;28;20047;-68
2023/10/25 10:05:56;;;;;;;5.78;3.10;;;12.30;99.90;;;;;;5124145;28;20070;-68
2023/10/25 10:08:36;;;;;;;4.10;2.97;;;12.20;99.90;;;;;;5123231;28;20369;-67
2023/10/25 10:11:12;;;;;;;5.95;3.25;;;12.10;99.90;;;;;;5122910;28;20570;-67
2023/10/25 10:13:37;;;;;;;;;;;12.20;99.90;;;;;;5124824;28;20047;-68
2023/10/25 10:16:05;;;;;;;4.37;2.93;;;12.10;99.90;;;;;;5122672;28;19919;-67
2023/10/25 10:18:35;;;;;;;4.50;2.67;;;12.00;99.90;;;;;;5124410;28;20074;-67
2023/10/25 10:21:01;;;;;;;4.75;3.00;;;11.90;99.90;;;;;;5120994;28;20043;-67
2023/10/25 10:23:56;;;;;;;4.50;2.97;;;11.80;99.90;;;;;;5123553;28;20080;-68
2023/10/25 10:26:44;;;;;;;6.47;2.85;;;11.80;99.90;;;;;;5103082;28;20063;-67
2023/10/25 10:29:31;;;;;;;4.57;3.30;;;11.70;99.90;;;;;;5122446;28;20067;-67
2023/10/25 10:31:58;;;;;;;7.82;6.03;;;11.70;99.90;;;;;;5104786;28;20083;-68
2023/10/25 10:34:56;;;;;;;5.15;2.92;;;11.60;99.90;;;;;;5123315;28;20091;-67
2023/10/25 10:37:25;;;;;;;5.10;3.10;;;11.60;99.90;;;;;;5110421;28;20123;-67
2023/10/25 10:40:11;;;;;;;5.53;3.10;;;11.60;99.90;;;;;;5104879;28;20050;-67
2023/10/25 10:42:40;;;;;;;;;;;11.70;99.90;;;;;;5122958;28;20050;-68
2023/10/25 10:45:12;;;;;;;6.30;3.10;;;11.70;99.90;;;;;;5103802;28;19927;-67
2023/10/25 10:48:00;;;;;;;7.38;3.38;;;11.80;99.90;;;;;;5105473;28;20035;-67
2023/10/25 10:50:25;;;;;;;7.97;3.28;;;11.80;99.90;;;;;;5121679;28;20031;-67
2023/10/25 10:52:52;;;;;;;5.88;3.10;;;12.00;99.90;;;;;;5104993;28;20051;-68
2023/10/25 10:55:23;;;;;;;5.88;3.08;;;12.00;99.90;;;;;;5103918;28;20052;-67
2023/10/25 10:57:49;;;;;;;5.18;2.83;;;12.10;99.90;;;;;;5122269;28;20044;-68
2023/10/25 11:00:17;;;;;;;4.50;3.03;;;12.10;99.90;;;;;;5122607;28;20047;-68
2023/10/25 11:02:50;;;;;;;4.13;2.65;;;12.10;99.90;;;;;;5121781;28;20126;-67
2023/10/25 11:05:19;;;;;;;3.75;2.90;;;12.20;99.90;;;;;;5104563;28;20448;-67
2023/10/25 11:07:47;;;;;;;4.72;2.65;;;12.20;99.90;;;;;;5121993;28;20133;-67
2023/10/25 11:10:13;;;;;;;4.57;2.60;;;12.10;99.90;;;;;;5121878;28;20044;-68
2023/10/25 11:12:39;;;;;;;5.07;2.63;;;12.10;99.90;;;;;;5093827;27;20049;-67
2023/10/25 11:15:06;;;;;;;4.95;2.20;;;12.10;99.90;;;;;;5119174;27;20076;-68
2023/10/25 11:17:33;;;;;;;4.10;2.90;;;12.10;99.90;;;;;;5104723;28;20417;-68
2023/10/25 11:20:01;;;;;;;4.20;2.40;;;12.00;99.90;;;;;;5120864;28;20050;-68
2023/10/25 11:22:30;;;;;;;5.95;2.50;;;12.00;99.90;;;;;;5104517;28;20119;-68
2023/10/25 11:24:57;;;;;;;4.28;2.50;;;12.00;99.90;;;;;;5121533;28;20043;-68
2023/10/25 11:27:32;;;;;;;4.72;2.75;;;11.90;99.90;;;;;;5122323;28;20054;-67
2023/10/25 11:29:58;;;;;;;3.92;2.90;;;11.90;99.90;;;;;;5122351;28;20040;-67
2023/10/25 11:32:24;;;;;;;6.00;2.90;;;11.90;99.90;;;;;;5120395;28;20076;-67
2023/10/25 11:34:54;;;;;;;5.03;2.90;;;11.90;99.90;;;;;;5104048;28;20111;-68
2023/10/25 11:37:22;;;;;;;4.88;3.08;;;11.90;99.90;;;;;;5085611;28;20392;-67
2023/10/25 11:40:01;;;;;;;4.60;2.60;;;11.90;99.90;;;;;;5103730;28;20032;-67
2023/10/25 11:42:31;;;;;;;4.15;2.50;;;11.80;99.90;;;;;;5120990;28;20052;-68
2023/10/25 11:44:59;;;;;;;4.30;2.63;;;11.80;99.90;;;;;;5103158;28;20079;-68
2023/10/25 11:47:26;;;;;;;5.40;2.70;;;11.80;99.90;;;;;;5120147;28;20044;-67
2023/10/25 11:49:57;;;;;;;4.90;2.40;;;11.70;99.90;;;;;;5120369;28;20061;-68
2023/10/25 11:52:27;;;;;;;6.80;2.92;;;11.70;99.90;;;;;;5122508;28;20047;-68
2023/10/25 11:54:57;;;;;;;4.28;2.90;;;11.70;99.90;;;;;;5102698;28;20043;-67
2023/10/25 11:57:33;;;;;;;4.70;2.63;;;11.70;99.90;;;;;;5121816;28;20051;-68
2023/10/25 11:59:59;;;;;;;4.93;2.60;;;11.70;99.90;;;;;;5103304;28;20043;-67
2023/10/25 12:02:26;;;;;;;6.22;2.65;;;11.60;99.90;;;;;;5120170;28;20039;-68
2023/10/25 12:04:53;;;;;;;5.40;2.53;;;11.70;99.90;;;;;;5104436;28;20054;-67
2023/10/25 12:07:21;;;;;;;3.88;2.25;;;11.60;99.90;;;;;;5120412;28;20061;-68
2023/10/25 12:09:47;;;;;;;3.88;2.47;;;11.60;99.90;;;;;;5121765;28;20047;-68
2023/10/25 12:12:14;;;;;;;4.47;2.38;;;11.60;99.90;;;;;;5119912;28;20534;-68
2023/10/25 12:14:40;;;;;;;4.13;2.63;;;11.60;99.90;;;;;;5103455;28;20044;-68
2023/10/25 12:17:06;;;;;;;5.05;2.38;;;11.50;99.90;;;;;;5121598;28;20044;-67
2023/10/25 12:19:36;;;;;;;5.93;2.50;;;11.50;99.90;;;;;;5102166;28;20063;-68
2023/10/25 12:22:05;;;;;;;3.50;2.17;;;11.50;99.90;;;;;;5103545;28;20072;-67
2023/10/25 12:24:31;;;;;;;4.85;2.40;;;11.40;99.90;;;;;;5121007;28;20114;-67
2023/10/25 12:26:57;;;;;;;4.28;2.53;;;11.50;99.90;;;;;;5121506;28;20062;-68
2023/10/25 12:29:24;;;;;;;3.30;2.50;;;11.40;99.90;;;;;;5120627;28;20565;-68
2023/10/25 12:31:50;;;;;;;4.57;2.45;;;11.40;99.90;;;;;;5120915;28;20495;-68
2023/10/25 12:34:16;;;;;;;4.43;2.33;;;11.40;99.90;;;;;;5120842;28;20051;-67
2023/10/25 12:36:42;;;;;;;4.03;2.38;;;11.40;99.90;;;;;;5111841;28;20054;-68
2023/10/25 12:39:08;;;;;;;4.50;2.30;;;11.40;99.90;;;;;;5121354;28;20039;-67
2023/10/25 12:41:34;;;;;;;4.40;2.42;;;11.40;99.90;;;;;;5083784;28;20044;-68
2023/10/25 12:44:04;;;;;;;5.15;3.53;;;11.50;99.90;;;;;;5121435;28;20051;-68
2023/10/25 12:46:30;;;;;;;5.93;4.07;;;11.50;99.90;;;;;;5120016;28;20483;-67
2023/10/25 12:48:56;;;;;;;8.20;4.65;;;11.50;99.90;;;;;;5121304;28;20039;-68
2023/10/25 12:51:22;;;;;;;5.80;3.20;;;11.50;99.90;;;;;;5120662;28;20047;-67
2023/10/25 12:53:48;;;;;;;5.38;2.67;;;11.60;99.90;;;;;;5120348;28;20394;-68
2023/10/25 12:56:13;;;;;;;4.47;2.47;;;11.60;99.90;;;;;;5121260;28;20043;-67
2023/10/25 12:58:40;;;;;;;4.55;2.47;;;11.60;99.90;;;;;;5119857;28;20040;-67